Schnellsuche:     vonnach     am:               Ankunft heute   Abflug heute   
Wetterdaten des Sylter Flughafens. Alle Angaben sind ohne Gewähr.



Datum: 2018-12-16 10:40 UTC
   
Windrichtung: 130°
Windgeschwindigkeit: 11 - 23 Kt.
QNH: 1012 hPa
Temperatur: 0 °C
Taupunkt: -3 °C
rel. Luftfeuchte: 80 %

METAR EDXW 161020Z 13016KT 9999 FEW020 SCT120 M00/M03 Q1013 RMK ATIS ECH=

Wolkenhöhen in den letzten 48 Stunden:






 

Im Jettempo nach Sylt!



Rhein-Neckar-Air

Mannheim
Die Rhein-Neckar-Air fliegt vom 05. April bis zum 25. Oktober 2019 nach Mannheim. Zur Seite der Rhein-Neckar-Air: www.flyRNA.de

Lufthansa

Zürich, München und Frankfurt/Main
Die Lufthansa fliegt vom 22. Dezember bis zum 04. Januar 2020 nach Zürich, vom 08. Dezember bis zum 26. Oktober 2019 nach München und vom 22. Dezember bis zum 13. Oktober 2019 nach Frankfurt/Main. Zur Seite der Lufthansa: www.lufthansa.de